Time;durP1;ratioP1;P1;durP2;ratioP2;P2;SDS_P1;SDS_P2;PMS_P1;PMS_P2;Temp;Humidity;BMP_temperature;BMP_pressure;BME280_temperature;BME280_humidity;BME280_pressure;Samples;Min_cycle;Max_cycle;Signal;HPM_P1;HPM_P2
2023/04/23 00:01:47;;;;;;;9.83;3.03;;;;;;;10.31;100.00;99215.22;5130847;27;20204;-75
2023/04/23 00:04:17;;;;;;;4.83;2.90;;;;;;;10.24;100.00;99208.84;5131008;28;20232;-75
2023/04/23 00:06:46;;;;;;;6.70;2.80;;;;;;;10.15;100.00;99211.13;5131067;28;20430;-75
2023/04/23 00:09:15;;;;;;;6.63;3.50;;;;;;;10.11;100.00;99208.88;5131170;27;20281;-75
2023/04/23 00:11:43;;;;;;;7.13;3.90;;;;;;;10.13;100.00;99212.97;5130640;28;20200;-75
2023/04/23 00:14:10;;;;;;;5.03;3.50;;;;;;;10.10;100.00;99202.97;5130963;28;20223;-75
2023/04/23 00:16:39;;;;;;;7.13;3.97;;;;;;;10.07;100.00;99207.47;5130723;28;20197;-75
2023/04/23 00:19:05;;;;;;;4.77;2.70;;;;;;;10.05;100.00;99212.69;5130471;28;20600;-75
2023/04/23 00:21:32;;;;;;;5.37;2.70;;;;;;;9.80;100.00;99205.03;5130927;27;20682;-75
2023/04/23 00:24:00;;;;;;;4.33;2.70;;;;;;;9.74;100.00;99214.75;5130385;27;20219;-75
2023/04/23 00:26:27;;;;;;;7.73;3.50;;;;;;;9.91;100.00;99207.69;5134606;27;20228;-75
2023/04/23 00:28:54;;;;;;;4.10;3.17;;;;;;;9.88;100.00;99213.00;5134807;27;20203;-75
2023/04/23 00:31:23;;;;;;;5.17;3.10;;;;;;;9.83;100.00;99215.03;5134709;27;20201;-75
2023/04/23 00:33:50;;;;;;;4.40;2.50;;;;;;;9.82;100.00;99215.97;5134938;27;20274;-75
2023/04/23 00:36:17;;;;;;;3.27;2.00;;;;;;;9.84;100.00;99214.13;5134743;27;20222;-75
2023/04/23 00:38:43;;;;;;;6.20;3.10;;;;;;;9.71;100.00;99216.66;5134684;27;20208;-75
2023/04/23 00:41:12;;;;;;;4.37;2.80;;;;;;;9.68;100.00;99215.13;5134530;27;20269;-75
2023/04/23 00:43:40;;;;;;;4.07;2.67;;;;;;;9.62;100.00;99207.06;5134505;27;20565;-75
2023/04/23 00:46:07;;;;;;;5.00;2.67;;;;;;;9.66;100.00;99209.34;5134235;27;20228;-75
2023/04/23 00:48:34;;;;;;;4.47;3.20;;;;;;;9.65;100.00;99202.56;5134563;27;20196;-75
2023/04/23 00:51:04;;;;;;;5.33;2.70;;;;;;;9.56;100.00;99205.75;5133919;27;20213;-75
2023/04/23 00:53:31;;;;;;;9.17;3.00;;;;;;;9.48;100.00;99203.72;5134423;27;20708;-75
2023/04/23 00:56:00;;;;;;;4.43;2.90;;;;;;;9.52;100.00;99205.13;5134001;27;20220;-75
2023/04/23 00:58:29;;;;;;;3.80;2.57;;;;;;;9.49;100.00;99197.69;5134280;27;20201;-75
2023/04/23 01:00:56;;;;;;;8.37;3.30;;;;;;;9.55;100.00;99201.56;5134383;27;20616;-75
2023/04/23 01:03:24;;;;;;;4.00;2.47;;;;;;;9.49;100.00;99196.88;5134051;27;20214;-75
2023/04/23 01:05:51;;;;;;;3.33;2.43;;;;;;;9.50;100.00;99193.38;5133979;27;20248;-75
2023/04/23 01:08:18;;;;;;;4.90;3.47;;;;;;;9.37;100.00;99192.59;5134124;27;20741;-75
2023/04/23 01:10:47;;;;;;;3.43;2.10;;;;;;;9.24;100.00;99193.34;5133599;27;20712;-75
2023/04/23 01:13:14;;;;;;;3.90;2.43;;;;;;;9.13;100.00;99190.69;5134063;27;20196;-75
2023/04/23 01:15:42;;;;;;;4.77;3.17;;;;;;;9.15;100.00;99193.16;5133654;27;20660;-75
2023/04/23 01:18:09;;;;;;;6.27;2.87;;;;;;;9.25;100.00;99195.00;5133896;27;20249;-75
2023/04/23 01:20:38;;;;;;;4.40;2.57;;;;;;;9.30;100.00;99200.59;5133767;27;20599;-75
2023/04/23 01:23:06;;;;;;;3.37;2.27;;;;;;;9.29;100.00;99191.34;5133614;27;20197;-75
2023/04/23 01:25:34;;;;;;;4.27;2.63;;;;;;;9.33;100.00;99196.22;5133592;27;20236;-75
2023/04/23 01:28:01;;;;;;;3.47;2.47;;;;;;;9.25;100.00;99194.16;5133446;27;20208;-75
2023/04/23 01:30:29;;;;;;;6.00;2.60;;;;;;;9.19;100.00;99189.47;5133593;27;20213;-75
2023/04/23 01:32:57;;;;;;;5.50;2.03;;;;;;;8.99;100.00;99193.31;5133595;27;20280;-75
2023/04/23 01:35:24;;;;;;;4.13;2.57;;;;;;;8.93;100.00;99193.69;5132890;27;20208;-75
2023/04/23 01:37:51;;;;;;;5.63;2.43;;;;;;;9.00;100.00;99189.84;5133621;27;20192;-75
2023/04/23 01:40:20;;;;;;;3.13;2.07;;;;;;;9.12;100.00;99191.59;5133382;27;20231;-75
2023/04/23 01:42:48;;;;;;;3.70;2.20;;;;;;;9.27;100.00;99187.25;5133411;27;20204;-75
2023/04/23 01:45:16;;;;;;;3.57;2.53;;;;;;;9.33;100.00;99191.94;5133151;27;20223;-75
2023/04/23 01:47:43;;;;;;;6.50;2.43;;;;;;;9.36;100.00;99196.84;5133167;27;20208;-75
2023/04/23 01:50:10;;;;;;;2.83;1.87;;;;;;;9.32;100.00;99194.59;5133165;27;20228;-75
2023/04/23 01:52:37;;;;;;;3.37;2.40;;;;;;;9.36;100.00;99198.59;5132888;27;20203;-75
2023/04/23 01:55:04;;;;;;;3.70;2.33;;;;;;;9.40;100.00;99202.59;5132787;27;20940;-75
2023/04/23 01:57:33;;;;;;;3.37;2.07;;;;;;;9.39;100.00;99200.94;5133073;27;20227;-75
2023/04/23 02:00:07;;;;;;;3.07;2.23;;;;;;;9.20;100.00;99204.69;5132730;27;20266;-75
2023/04/23 02:02:34;;;;;;;2.90;2.37;;;;;;;9.01;100.00;99197.38;5132895;27;20208;-75
2023/04/23 02:05:03;;;;;;;1.77;1.63;;;;;;;8.99;100.00;99201.78;5132687;27;20228;-75
2023/04/23 02:07:30;;;;;;;2.23;2.03;;;;;;;9.07;100.00;99207.22;5133301;27;20259;-75
2023/04/23 02:09:57;;;;;;;4.50;2.27;;;;;;;9.21;100.00;99202.94;5132925;27;20216;-75
2023/04/23 02:12:24;;;;;;;6.87;2.37;;;;;;;9.23;100.00;99201.94;5132541;27;20203;-75
2023/04/23 02:14:53;;;;;;;3.27;1.83;;;;;;;9.28;100.00;99214.41;5132701;27;20216;-75
2023/04/23 02:17:21;;;;;;;3.10;2.10;;;;;;;9.32;100.00;99205.63;5132635;27;20197;-75
2023/04/23 02:19:48;;;;;;;4.40;2.73;;;;;;;9.41;100.00;99205.03;5132464;27;20224;-75
2023/04/23 02:22:15;;;;;;;6.87;2.60;;;;;;;9.30;100.00;99202.34;5132420;27;20211;-75
2023/04/23 02:24:43;;;;;;;3.20;2.10;;;;;;;9.27;100.00;99203.38;5132502;27;20344;-75
2023/04/23 02:27:10;;;;;;;2.43;2.07;;;;;;;9.44;100.00;99204.00;5132288;27;20311;-75
2023/04/23 02:29:38;;;;;;;4.77;2.53;;;;;;;9.52;100.00;99202.59;5132297;27;20647;-75
2023/04/23 02:32:06;;;;;;;3.57;2.37;;;;;;;9.36;100.00;99211.34;5132530;27;20229;-75
2023/04/23 02:34:33;;;;;;;3.10;2.00;;;;;;;9.24;100.00;99203.56;5132712;27;20216;-75
2023/04/23 02:37:00;;;;;;;2.80;2.00;;;;;;;9.13;100.00;99198.34;5132225;27;20200;-75
2023/04/23 02:39:27;;;;;;;2.73;1.87;;;;;;;9.14;100.00;99199.19;5132150;27;20212;-75
2023/04/23 02:41:53;;;;;;;4.37;2.47;;;;;;;9.32;100.00;99199.72;5132135;27;20192;-75
2023/04/23 02:44:20;;;;;;;2.67;1.90;;;;;;;9.43;100.00;99199.84;5132262;27;20212;-75
2023/04/23 02:46:47;;;;;;;2.73;1.90;;;;;;;9.47;100.00;99199.50;5131486;27;20232;-75
2023/04/23 02:49:15;;;;;;;4.13;2.30;;;;;;;9.50;100.00;99198.50;5131911;27;20241;-75
2023/04/23 02:51:42;;;;;;;2.47;1.87;;;;;;;9.60;100.00;99198.69;5132517;27;20201;-75
2023/04/23 02:54:10;;;;;;;77.87;19.47;;;;;;;9.29;100.00;99200.72;5132181;27;20293;-75
2023/04/23 02:56:37;;;;;;;74.27;16.23;;;;;;;9.16;100.00;99195.63;5131654;27;20703;-75
2023/04/23 02:59:04;;;;;;;10.90;4.83;;;;;;;9.02;100.00;99203.34;5132097;27;20228;-75
2023/04/23 03:01:31;;;;;;;6.17;3.30;;;;;;;9.00;100.00;99202.59;5131690;27;20277;-75
2023/04/23 03:03:58;;;;;;;3.53;2.67;;;;;;;9.11;100.00;99205.28;5131205;27;20204;-75
2023/04/23 03:06:27;;;;;;;8.33;3.60;;;;;;;8.95;100.00;99209.72;5131526;27;20228;-75
2023/04/23 03:08:53;;;;;;;8.50;2.83;;;;;;;8.68;100.00;99205.44;5131816;27;20196;-75
2023/04/23 03:11:21;;;;;;;6.03;3.03;;;;;;;8.75;100.00;99205.88;5131544;27;20200;-75
2023/04/23 03:13:48;;;;;;;6.60;2.90;;;;;;;8.66;100.00;99217.47;5131447;27;20207;-75
2023/04/23 03:16:15;;;;;;;5.73;2.87;;;;;;;8.52;100.00;99212.41;5131371;27;20200;-75
2023/04/23 03:18:42;;;;;;;3.30;2.97;;;;;;;8.51;100.00;99213.31;5131546;27;20200;-75
2023/04/23 03:21:09;;;;;;;4.00;2.90;;;;;;;8.53;100.00;99212.31;5131755;27;20484;-75
2023/04/23 03:23:37;;;;;;;3.77;2.40;;;;;;;8.35;100.00;99213.44;5131469;27;20207;-75
2023/04/23 03:26:04;;;;;;;5.97;3.10;;;;;;;8.30;100.00;99220.53;5131236;27;20224;-75
2023/04/23 03:28:31;;;;;;;6.77;4.03;;;;;;;8.22;100.00;99218.44;5131226;27;20248;-75
2023/04/23 03:30:58;;;;;;;8.50;3.33;;;;;;;8.22;100.00;99222.72;5131171;27;20297;-75
2023/04/23 03:33:25;;;;;;;7.93;3.97;;;;;;;8.30;100.00;99211.16;5131531;27;20620;-75
2023/04/23 03:35:51;;;;;;;17.07;5.53;;;;;;;8.38;100.00;99211.53;5131448;27;20295;-75
2023/04/23 03:38:18;;;;;;;8.07;4.30;;;;;;;8.38;100.00;99209.00;5131122;27;20196;-75
2023/04/23 03:40:46;;;;;;;8.37;3.00;;;;;;;8.37;100.00;99214.13;5131286;27;20224;-75
2023/04/23 03:43:13;;;;;;;4.27;2.53;;;;;;;8.36;100.00;99215.88;5131395;27;20230;-75
2023/04/23 03:45:40;;;;;;;2.83;2.50;;;;;;;8.48;100.00;99210.97;5131191;27;20608;-75
2023/04/23 03:48:07;;;;;;;3.10;2.13;;;;;;;8.52;100.00;99213.25;5131076;27;20293;-75
2023/04/23 03:50:37;;;;;;;5.40;2.87;;;;;;;8.53;100.00;99211.50;5131189;27;20213;-75
2023/04/23 03:53:04;;;;;;;4.13;2.40;;;;;;;8.67;100.00;99213.19;5131081;27;20203;-75
2023/04/23 03:55:31;;;;;;;7.80;2.17;;;;;;;8.84;100.00;99216.34;5130810;27;20660;-75
2023/04/23 03:58:00;;;;;;;4.93;2.70;;;;;;;8.83;100.00;99219.78;5130666;27;20203;-75
2023/04/23 04:00:27;;;;;;;3.37;2.30;;;;;;;8.95;100.00;99217.38;5130861;27;20212;-75
2023/04/23 04:02:54;;;;;;;4.23;2.90;;;;;;;9.06;100.00;99220.06;5130675;27;20208;-75
2023/04/23 04:05:21;;;;;;;8.43;3.00;;;;;;;9.13;100.00;99220.47;5131103;28;20308;-75
2023/04/23 04:07:48;;;;;;;11.47;3.50;;;;;;;9.17;100.00;99227.03;5130772;28;20227;-75
2023/04/23 04:10:15;;;;;;;11.20;5.77;;;;;;;9.17;100.00;99230.41;5130810;28;20220;-75
2023/04/23 04:12:43;;;;;;;10.23;5.10;;;;;;;9.26;100.00;99229.81;5130869;28;20204;-75
2023/04/23 04:15:12;;;;;;;13.97;4.83;;;;;;;9.34;100.00;99233.56;5130699;28;20216;-75
2023/04/23 04:17:39;;;;;;;4.77;3.13;;;;;;;9.34;100.00;99233.56;5130769;27;20209;-75
2023/04/23 04:20:08;;;;;;;5.83;3.57;;;;;;;9.53;100.00;99239.94;5130703;28;20481;-75
2023/04/23 04:22:35;;;;;;;6.50;3.53;;;;;;;9.67;100.00;99233.94;5130716;28;20250;-75
2023/04/23 04:25:02;;;;;;;3.90;2.43;;;;;;;9.73;100.00;99236.06;5130457;28;20216;-75
2023/04/23 04:27:28;;;;;;;6.83;3.30;;;;;;;9.83;100.00;99235.47;5130475;27;20258;-75
2023/04/23 04:29:55;;;;;;;4.77;2.70;;;;;;;9.95;100.00;99239.78;5130619;27;20227;-75
2023/04/23 04:32:23;;;;;;;4.67;2.70;;;;;;;10.18;100.00;99244.13;5130583;28;20284;-75
2023/04/23 04:34:51;;;;;;;5.77;2.40;;;;;;;10.51;100.00;99245.31;5130932;28;20238;-75
2023/04/23 04:37:19;;;;;;;3.80;2.43;;;;;;;10.63;100.00;99241.91;5130745;27;20605;-75
2023/04/23 04:39:46;;;;;;;3.43;2.37;;;;;;;10.79;100.00;99245.94;5130713;28;20801;-75
2023/04/23 04:42:14;;;;;;;6.13;3.17;;;;;;;10.86;100.00;99252.28;5130380;28;20196;-75
2023/04/23 04:44:42;;;;;;;3.57;2.60;;;;;;;10.97;100.00;99247.22;5130417;27;20319;-75
2023/04/23 04:47:09;;;;;;;4.47;2.67;;;;;;;11.26;100.00;99241.75;5130499;28;20229;-75
2023/04/23 04:49:37;;;;;;;4.93;2.60;;;;;;;11.70;100.00;99247.91;5130279;27;20212;-75
2023/04/23 04:52:04;;;;;;;5.00;2.73;;;;;;;11.93;100.00;99259.84;5130132;28;20201;-75
2023/04/23 04:54:31;;;;;;;5.33;2.77;;;;;;;12.18;100.00;99253.66;5130552;28;20642;-75
2023/04/23 04:56:58;;;;;;;8.43;2.50;;;;;;;12.42;100.00;99266.38;5130375;28;20196;-75
2023/04/23 04:59:24;;;;;;;6.87;2.67;;;;;;;12.72;100.00;99252.09;5130440;27;20223;-75
2023/04/23 05:01:51;;;;;;;6.57;2.90;;;;;;;12.88;99.21;99260.19;5130368;27;20197;-75
2023/04/23 05:04:18;;;;;;;7.47;3.00;;;;;;;13.07;98.27;99261.31;5130240;28;20695;-75
2023/04/23 05:06:46;;;;;;;3.80;2.10;;;;;;;13.24;95.20;99267.69;5129822;28;20232;-75
2023/04/23 05:09:13;;;;;;;3.17;2.30;;;;;;;13.16;97.63;99264.91;5130520;28;20238;-76
2023/04/23 05:11:40;;;;;;;4.77;3.20;;;;;;;13.06;96.26;99268.22;5132362;27;20209;-76
2023/04/23 05:14:07;;;;;;;5.83;3.60;;;;;;;13.03;94.65;99270.19;5134086;27;20221;-75
2023/04/23 05:16:34;;;;;;;5.57;3.30;;;;;;;13.29;95.96;99266.41;5133762;27;20218;-75
2023/04/23 05:19:01;;;;;;;5.33;2.93;;;;;;;13.65;94.83;99261.78;5134082;27;20268;-75
2023/04/23 05:21:28;;;;;;;4.07;2.77;;;;;;;13.94;89.85;99268.84;5133741;27;20701;-75
2023/04/23 05:23:56;;;;;;;4.33;3.00;;;;;;;14.06;90.59;99272.94;5133578;27;20222;-75
2023/04/23 05:26:23;;;;;;;3.27;2.53;;;;;;;14.21;91.59;99263.13;5133757;27;20196;-75
2023/04/23 05:28:50;;;;;;;4.13;2.57;;;;;;;14.59;88.95;99261.66;5133809;27;20236;-75
2023/04/23 05:31:17;;;;;;;4.00;2.57;;;;;;;14.83;86.38;99267.22;5133721;27;20207;-76
2023/04/23 05:33:45;;;;;;;2.73;2.10;;;;;;;15.09;84.09;99275.25;5133118;27;20196;-75
2023/04/23 05:36:12;;;;;;;4.87;2.70;;;;;;;15.26;84.00;99270.38;5133663;27;20201;-75
2023/04/23 05:38:39;;;;;;;4.80;2.40;;;;;;;15.67;81.79;99269.25;5133820;27;20209;-75
2023/04/23 05:41:07;;;;;;;5.30;2.23;;;;;;;15.96;79.60;99283.88;5133228;27;20208;-75
2023/04/23 05:43:34;;;;;;;5.93;3.00;;;;;;;15.94;83.82;99280.59;5133271;27;20188;-76
2023/04/23 05:46:03;;;;;;;5.20;3.03;;;;;;;16.17;83.28;99293.97;5133230;27;20215;-76
2023/04/23 05:48:30;;;;;;;5.80;3.20;;;;;;;16.25;83.37;99296.66;5133007;27;20742;-75
2023/04/23 05:50:56;;;;;;;3.40;2.50;;;;;;;15.99;83.54;99299.88;5133131;27;20223;-75
2023/04/23 05:53:23;;;;;;;4.03;2.70;;;;;;;16.22;82.96;99291.78;5133354;27;20197;-75
2023/04/23 05:55:50;;;;;;;4.83;2.70;;;;;;;16.84;83.07;99300.63;5133088;27;20217;-75
2023/04/23 05:58:18;;;;;;;3.93;2.87;;;;;;;16.73;81.05;99287.88;5133131;27;20266;-75
2023/04/23 06:00:45;;;;;;;3.47;2.67;;;;;;;16.83;80.90;99293.81;5133176;27;20313;-75
2023/04/23 06:03:12;;;;;;;3.83;2.93;;;;;;;16.74;81.81;99292.06;5132855;27;20224;-75
2023/04/23 06:05:41;;;;;;;4.40;2.97;;;;;;;17.31;80.78;99295.25;5132728;27;20223;-75
2023/04/23 06:08:08;;;;;;;4.13;2.77;;;;;;;17.73;77.15;99291.97;5132591;27;20229;-75
2023/04/23 06:10:35;;;;;;;4.50;2.90;;;;;;;17.81;74.05;99299.84;5133259;27;20220;-76
2023/04/23 06:13:02;;;;;;;5.40;2.83;;;;;;;17.90;73.94;99292.94;5132713;27;20241;-75
2023/04/23 06:15:30;;;;;;;3.40;2.60;;;;;;;18.08;74.42;99300.63;5132524;27;20223;-75
2023/04/23 06:17:57;;;;;;;4.53;2.87;;;;;;;18.40;70.55;99301.75;5132788;27;20252;-75
2023/04/23 06:20:25;;;;;;;6.57;3.00;;;;;;;18.72;70.87;99304.44;5132589;27;20628;-75
2023/04/23 06:22:51;;;;;;;3.60;2.77;;;;;;;18.84;69.09;99299.00;5132770;27;20196;-76
2023/04/23 06:25:18;;;;;;;4.80;3.27;;;;;;;18.82;69.01;99301.78;5132375;27;20275;-75
2023/04/23 06:27:45;;;;;;;5.30;2.90;;;;;;;19.02;68.83;99302.28;5132242;27;20286;-75
2023/04/23 06:30:12;;;;;;;3.67;2.70;;;;;;;19.44;67.02;99298.75;5132285;27;20768;-75
2023/04/23 06:32:41;;;;;;;6.60;3.27;;;;;;;19.73;65.73;99298.28;5132456;27;20196;-76
2023/04/23 06:35:08;;;;;;;8.60;3.10;;;;;;;19.93;65.41;99303.91;5132414;27;20225;-76
2023/04/23 06:37:35;;;;;;;4.07;2.73;;;;;;;19.87;66.42;99301.97;5132494;27;20199;-76
2023/04/23 06:40:02;;;;;;;3.50;2.30;;;;;;;19.82;66.34;99302.47;5132095;27;20219;-77
2023/04/23 06:42:29;;;;;;;3.37;2.47;;;;;;;20.15;70.97;99306.78;5132423;27;20195;-77
2023/04/23 06:44:58;;;;;;;4.63;2.90;;;;;;;20.06;67.84;99304.19;5132456;27;20227;-75
2023/04/23 06:47:25;;;;;;;3.70;2.77;;;;;;;20.14;67.99;99305.97;5132462;27;20252;-77
2023/04/23 06:49:53;;;;;;;4.83;2.93;;;;;;;20.17;65.57;99307.41;5132205;27;20235;-76
2023/04/23 06:52:20;;;;;;;5.83;2.67;;;;;;;20.31;64.58;99306.72;5131795;27;20196;-77
2023/04/23 06:54:46;;;;;;;5.17;2.60;;;;;;;20.43;64.01;99304.56;5132182;27;20227;-77
2023/04/23 06:57:13;;;;;;;5.30;2.73;;;;;;;20.61;63.03;99307.75;5131776;27;20592;-77
2023/04/23 06:59:40;;;;;;;3.43;2.60;;;;;;;20.94;63.22;99308.41;5131660;27;20276;-77
2023/04/23 07:02:07;;;;;;;4.57;2.93;;;;;;;20.93;64.09;99306.75;5131675;27;20199;-76
2023/04/23 07:04:34;;;;;;;3.63;2.93;;;;;;;21.06;62.13;99310.56;5132137;27;20305;-76
2023/04/23 07:07:02;;;;;;;4.97;2.73;;;;;;;20.94;62.75;99312.75;5131585;27;20309;-77
2023/04/23 07:09:29;;;;;;;4.97;2.60;;;;;;;21.21;62.45;99312.25;5132566;27;20227;-76
2023/04/23 07:11:56;;;;;;;3.97;2.87;;;;;;;21.16;61.16;99313.75;5131898;27;20189;-76
2023/04/23 07:14:23;;;;;;;6.87;2.40;;;;;;;21.08;61.57;99312.03;5131656;27;20236;-77
2023/04/23 07:16:50;;;;;;;4.47;2.30;;;;;;;20.77;60.06;99317.25;5131726;27;20200;-76
2023/04/23 07:19:17;;;;;;;3.40;2.20;;;;;;;20.95;59.92;99312.59;5131652;27;20218;-76
2023/04/23 07:21:44;;;;;;;4.03;2.23;;;;;;;21.63;58.77;99308.38;5131807;27;20621;-76
2023/04/23 07:24:12;;;;;;;2.77;2.43;;;;;;;21.70;59.76;99306.69;5131271;27;20262;-76
2023/04/23 07:26:39;;;;;;;6.70;2.90;;;;;;;20.83;58.35;99311.38;5131296;27;20285;-76
2023/04/23 07:29:09;;;;;;;5.80;2.43;;;;;;;20.51;61.71;99310.53;5131054;27;20674;-76
2023/04/23 07:31:36;;;;;;;4.30;2.43;;;;;;;19.19;61.84;99318.66;5131434;27;20212;-76
2023/04/23 07:34:03;;;;;;;3.70;2.73;;;;;;;20.50;57.47;99306.31;5130720;27;20207;-76
2023/04/23 07:36:30;;;;;;;12.20;2.53;;;;;;;20.12;58.11;99303.53;5131299;27;20217;-77
2023/04/23 07:38:57;;;;;;;3.00;2.60;;;;;;;19.34;62.12;99304.06;5130979;27;20199;-76
2023/04/23 07:41:25;;;;;;;2.93;2.37;;;;;;;20.58;59.44;99308.09;5131051;27;20201;-77
2023/04/23 07:43:52;;;;;;;4.37;2.23;;;;;;;21.75;59.34;99310.53;5131389;27;20206;-77
2023/04/23 07:46:18;;;;;;;4.40;3.00;;;;;;;22.49;55.37;99311.38;5131045;27;20800;-76
2023/04/23 07:48:45;;;;;;;3.00;2.25;;;;;;;22.85;53.16;99307.16;5131040;27;20649;-77
2023/04/23 07:51:12;;;;;;;3.78;2.53;;;;;;;23.31;52.06;99312.06;5130988;27;20207;-77
2023/04/23 07:53:40;;;;;;;7.53;2.05;;;;;;;23.04;47.55;99309.22;5130532;27;20234;-77
2023/04/23 07:56:07;;;;;;;4.35;2.30;;;;;;;22.66;50.80;99305.94;5130847;27;20671;-76
2023/04/23 07:58:35;;;;;;;3.10;2.08;;;;;;;21.97;44.24;99307.06;5130962;27;20200;-77
2023/04/23 08:01:02;;;;;;;2.78;1.70;;;;;;;22.41;41.47;99316.69;5130792;28;20217;-76
2023/04/23 08:03:29;;;;;;;2.42;1.77;;;;;;;22.17;41.45;99303.94;5130579;27;20208;-76
2023/04/23 08:05:56;;;;;;;3.30;1.90;;;;;;;22.72;43.31;99310.41;5131059;27;20232;-77
2023/04/23 08:08:23;;;;;;;3.35;2.13;;;;;;;21.51;48.00;99293.38;5130958;28;20576;-77
2023/04/23 08:10:50;;;;;;;5.70;2.38;;;;;;;21.44;52.09;99301.06;5130658;28;20231;-77
2023/04/23 08:13:17;;;;;;;2.65;1.90;;;;;;;22.72;51.02;99306.03;5131085;28;20215;-76
2023/04/23 08:15:45;;;;;;;2.10;1.75;;;;;;;22.90;45.81;99307.44;5130612;28;20293;-77
2023/04/23 08:18:12;;;;;;;3.03;1.80;;;;;;;23.36;39.44;99310.50;5130677;28;20203;-77
2023/04/23 08:20:39;;;;;;;4.10;2.45;;;;;;;21.17;48.21;99297.16;5130470;28;20220;-77
2023/04/23 08:23:06;;;;;;;6.30;2.30;;;;;;;22.90;48.06;99299.59;5130963;28;20551;-78
2023/04/23 08:25:33;;;;;;;5.15;2.75;;;;;;;23.73;44.94;99296.31;5130888;28;20250;-77
2023/04/23 08:28:00;;;;;;;3.92;2.25;;;;;;;23.72;43.30;99305.16;5130756;28;20232;-77
2023/04/23 08:30:27;;;;;;;2.78;2.17;;;;;;;24.09;43.16;99300.56;5130864;27;20254;-77
2023/04/23 08:32:57;;;;;;;2.40;1.80;;;;;;;24.92;41.58;99310.94;5130747;28;20249;-76
2023/04/23 08:35:24;;;;;;;5.13;2.50;;;;;;;24.46;39.56;99298.53;5130640;28;20220;-77
2023/04/23 08:37:51;;;;;;;2.70;1.80;;;;;;;22.95;40.52;99303.31;5131373;27;20219;-77
2023/04/23 08:40:18;;;;;;;2.80;1.73;;;;;;;23.04;40.23;99311.81;5130404;28;20239;-77
2023/04/23 08:42:49;;;;;;;3.78;1.90;;;;;;;22.31;39.57;99303.97;5130531;27;20208;-78
2023/04/23 08:45:16;;;;;;;2.42;1.95;;;;;;;21.00;40.47;99304.28;5131024;27;20209;-77
2023/04/23 08:47:43;;;;;;;2.60;1.70;;;;;;;21.64;41.81;99294.38;5134431;27;20209;-77
2023/04/23 08:50:15;;;;;;;3.13;2.08;;;;;;;22.96;40.97;99293.69;5134896;27;20220;-77
2023/04/23 08:52:46;;;;;;;2.78;2.17;;;;;;;22.93;39.36;99289.59;5134347;27;20679;-77
2023/04/23 08:55:14;;;;;;;2.25;1.85;;;;;;;22.67;40.33;99292.75;5133993;27;20242;-77
2023/04/23 08:57:42;;;;;;;2.97;2.10;;;;;;;23.57;38.85;99282.75;5134824;27;20284;-77
2023/04/23 09:00:10;;;;;;;2.58;2.03;;;;;;;23.37;39.77;99290.44;5134330;27;20270;-77
2023/04/23 09:02:38;;;;;;;2.60;1.80;;;;;;;21.56;41.39;99288.44;5134183;27;20232;-77
2023/04/23 09:05:05;;;;;;;3.78;2.13;;;;;;;21.68;41.83;99294.84;5133928;27;20217;-77
2023/04/23 09:07:34;;;;;;;2.17;1.63;;;;;;;20.61;43.80;99286.16;5133951;27;20200;-77
2023/04/23 09:10:01;;;;;;;2.42;1.85;;;;;;;20.84;45.12;99281.81;5133660;27;20232;-77
2023/04/23 09:12:28;;;;;;;3.80;1.87;;;;;;;21.31;43.92;99278.22;5133840;27;20200;-77
2023/04/23 09:14:55;;;;;;;2.53;1.98;;;;;;;21.75;44.36;99285.31;5134218;27;20297;-76
2023/04/23 09:17:24;;;;;;;3.90;2.10;;;;;;;22.07;43.15;99278.16;5134064;27;20228;-76
2023/04/23 09:19:51;;;;;;;3.50;2.28;;;;;;;22.40;38.88;99283.81;5133824;27;20272;-76
2023/04/23 09:22:39;;;;;;;3.65;1.95;;;;;;;23.02;40.11;99283.31;5134513;27;20201;-76
2023/04/23 09:25:08;;;;;;;2.30;1.75;;;;;;;22.65;39.03;99281.69;5134826;27;20269;-77
2023/04/23 09:27:36;;;;;;;2.72;1.70;;;;;;;23.20;35.99;99285.47;5134319;27;20200;-77
2023/04/23 09:30:06;;;;;;;3.70;1.98;;;;;;;23.47;37.73;99273.47;5134722;27;20284;-77
2023/04/23 09:32:33;;;;;;;5.28;2.15;;;;;;;23.11;36.79;99281.38;5134543;27;20292;-78
2023/04/23 09:35:02;;;;;;;2.42;1.95;;;;;;;23.41;35.63;99270.78;5134484;27;20220;-77
2023/04/23 09:37:29;;;;;;;4.78;1.88;;;;;;;22.63;38.65;99272.44;5134598;27;20201;-78
2023/04/23 09:40:00;;;;;;;7.78;2.20;;;;;;;23.56;35.75;99274.13;5134439;27;20221;-78
2023/04/23 09:42:28;;;;;;;4.55;1.77;;;;;;;24.68;36.31;99272.28;5138508;27;20197;-77
2023/04/23 09:45:00;;;;;;;2.92;1.95;;;;;;;24.09;36.75;99266.63;5134448;27;20227;-78
2023/04/23 09:47:27;;;;;;;1.95;1.65;;;;;;;24.10;34.28;99259.59;5133401;27;20668;-77
2023/04/23 09:49:53;;;;;;;2.67;1.80;;;;;;;24.41;35.24;99261.72;5133000;27;20240;-77
2023/04/23 09:52:21;;;;;;;3.03;1.90;;;;;;;24.69;34.87;99258.19;5133368;27;20205;-77
2023/04/23 09:54:48;;;;;;;2.10;1.73;;;;;;;25.04;35.65;99254.41;5133101;27;20788;-77
2023/04/23 09:57:16;;;;;;;2.60;1.60;;;;;;;24.28;32.36;99259.06;5132823;27;20192;-77
2023/04/23 09:59:43;;;;;;;1.95;1.75;;;;;;;24.79;33.88;99253.41;5132890;27;20917;-76
2023/04/23 10:02:11;;;;;;;2.40;1.90;;;;;;;24.98;32.55;99252.59;5132889;27;20214;-76
2023/04/23 10:04:38;;;;;;;3.15;1.90;;;;;;;23.46;32.42;99245.72;5132705;27;20224;-77
2023/04/23 10:07:07;;;;;;;2.45;1.88;;;;;;;23.25;32.84;99240.56;5132869;27;20201;-77
2023/04/23 10:09:34;;;;;;;3.05;1.73;;;;;;;21.31;34.28;99241.81;5132498;27;20270;-76
2023/04/23 10:12:02;;;;;;;1.83;1.50;;;;;;;22.33;34.79;99247.25;5132837;27;20200;-76
2023/04/23 10:14:30;;;;;;;2.50;1.98;;;;;;;22.84;35.98;99243.78;5132495;27;20221;-76
2023/04/23 10:16:59;;;;;;;3.60;2.20;;;;;;;23.59;35.61;99242.41;5132827;27;20205;-77
2023/04/23 10:19:27;;;;;;;3.22;2.03;;;;;;;23.42;36.52;99241.91;5132424;27;20735;-77
2023/04/23 10:21:56;;;;;;;3.55;1.90;;;;;;;22.97;34.49;99243.94;5132559;27;20211;-76
2023/04/23 10:24:27;;;;;;;4.03;1.80;;;;;;;22.55;34.88;99242.09;5132353;27;20303;-77
2023/04/23 10:26:58;;;;;;;4.35;1.90;;;;;;;22.29;35.57;99238.19;5132755;27;20265;-77
2023/04/23 10:29:28;;;;;;;6.07;1.70;;;;;;;22.21;37.99;99230.50;5132783;27;20684;-76
2023/04/23 10:31:59;;;;;;;1.90;1.70;;;;;;;22.40;37.17;99220.47;5132688;27;20225;-76
2023/04/23 10:34:27;;;;;;;3.63;1.77;;;;;;;21.57;37.38;99219.81;5132867;27;20221;-77
2023/04/23 10:36:55;;;;;;;2.80;1.70;;;;;;;21.30;37.10;99214.19;5132274;27;20209;-76
2023/04/23 10:39:24;;;;;;;2.22;1.63;;;;;;;21.38;38.76;99221.94;5132571;27;20224;-76
2023/04/23 10:41:52;;;;;;;5.50;1.87;;;;;;;21.39;37.04;99218.34;5132275;27;20197;-76
2023/04/23 10:44:20;;;;;;;2.70;1.67;;;;;;;21.69;38.29;99213.97;5132394;27;20764;-76
2023/04/23 10:46:55;;;;;;;1.75;1.58;;;;;;;21.95;37.28;99217.13;5132086;27;20254;-76
2023/04/23 10:49:25;;;;;;;2.05;1.60;;;;;;;21.84;37.83;99211.34;5131768;27;20228;-76
2023/04/23 10:51:59;;;;;;;1.77;1.60;;;;;;;21.28;38.91;99210.94;5132244;27;20229;-76
2023/04/23 10:54:30;;;;;;;2.35;1.83;;;;;;;21.22;38.59;99211.66;5131645;27;20267;-76
2023/04/23 10:57:03;;;;;;;2.50;1.65;;;;;;;21.51;37.26;99205.72;5131863;27;20200;-76
2023/04/23 10:59:31;;;;;;;2.13;1.80;;;;;;;21.32;39.15;99212.22;5132258;27;20683;-75
2023/04/23 11:01:59;;;;;;;2.57;1.90;;;;;;;20.63;38.28;99195.88;5131854;27;20207;-76
2023/04/23 11:04:30;;;;;;;4.27;1.73;;;;;;;20.39;38.40;99192.44;5131471;27;20244;-76
2023/04/23 11:07:04;;;;;;;2.77;1.70;;;;;;;20.43;37.76;99195.50;5131775;27;20196;-76
2023/04/23 11:09:43;;;;;;;1.93;1.67;;;;;;;20.71;38.90;99188.00;5130749;27;20243;-76
2023/04/23 11:12:12;;;;;;;4.43;1.83;;;;;;;20.48;39.27;99188.00;5131840;27;20200;-76
2023/04/23 11:14:48;;;;;;;4.00;2.10;;;;;;;21.13;40.13;99186.72;5131241;27;20230;-76
2023/04/23 11:17:17;;;;;;;2.13;1.80;;;;;;;21.12;37.41;99183.31;5131500;27;20268;-79
2023/04/23 11:20:10;;;;;;;2.67;2.20;;;;;;;21.72;36.12;99192.00;5131506;27;20685;-76
2023/04/23 11:22:38;;;;;;;2.67;1.80;;;;;;;21.95;39.12;99188.47;5131384;27;20196;-76
2023/04/23 11:25:09;;;;;;;1.58;1.45;;;;;;;22.05;36.43;99191.59;5131197;27;20699;-76
2023/04/23 11:27:38;;;;;;;4.25;1.63;;;;;;;21.91;36.95;99186.25;5131357;27;20209;-77
2023/04/23 11:30:10;;;;;;;3.92;1.83;;;;;;;22.07;40.36;99185.22;5131093;27;20703;-76
2023/04/23 11:32:37;;;;;;;2.47;2.08;;;;;;;22.09;42.01;99179.84;5131512;27;20253;-76
2023/04/23 11:35:05;;;;;;;4.63;1.90;;;;;;;21.82;40.28;99182.13;5131352;27;20735;-76